Orfordville, Wisconsin
Current Conditions -  °F | °C
As of 5:15 AM on Friday 24 Oct 2014 (Local Time) from KJVL Reporting Station
Haze Haze  
Wind Chill: 52°   Ceiling: 500
Heat Index: 52°   Visibility: 5mi
Dew Point: 50°   Wind: 6mph
Humidity: 94%   Direction: 300°WNW
Pressure: 30.04"   Gusts: NA
Location:  42.63°N, 89.25°W
Report Text: KJVL 241015Z AUTO 30005KT 5SM BR OVC005 11/10 A3004 RMK AO2
Loading
Personal Weather Stations






























Interactive Weather Map
Tropical Storm Tracking
New forecast layout! Learn more

10-Day Weather Forecast

Advertisements
Track Severe Weather on mobile